Maersk Danang — A8PS5 — position and weather

sailwx.info

Track history (hours):
 
Tides and Currents Weather Stations Pressure Air Temp Water Temp Dewpoint Dewpoint Depression Visibility Wind Speed Wind Dir Waves Ship Positions

Maersk Danang

Last reported at 2017-Jul-25 10:28 UTC. Time now 2017-Jul-25 10:40 UTC.
Position N 32°08' W 081°09'.

Length 294 m; draft 10.2 m.

Type: Ship (hazmat cat A). MMSI: 636091595.

Date/timePositionNaut miles runAvg speedWind from/ knotsBaromVisibWave heightAir tempDewpointWater temp
2017-Jul-25 10:28N 32°08' W 081°09'0 0.0
2017-Jul-25 09:58N 32°08' W 081°09'0 0.0
2017-Jul-25 09:28N 32°08' W 081°09'0 0.0
2017-Jul-25 08:58N 32°08' W 081°09'0 0.0
2017-Jul-25 08:10N 32°08' W 081°09'0 0.0
2017-Jul-25 07:58N 32°08' W 081°09'0 0.0
2017-Jul-25 07:28N 32°08' W 081°09'0 0.0
2017-Jul-25 06:58N 32°08' W 081°09'0 0.0
2017-Jul-25 06:28N 32°08' W 081°09'0 0.0
2017-Jul-25 05:58N 32°08' W 081°09'0 0.0
2017-Jul-25 05:28N 32°08' W 081°09'0 0.0
2017-Jul-25 04:58N 32°08' W 081°09'0 0.0
2017-Jul-25 04:22N 32°08' W 081°09'0 0.0
2017-Jul-25 03:58N 32°08' W 081°09'0 0.0
2017-Jul-25 03:28N 32°08' W 081°09'0 0.0
2017-Jul-25 02:58N 32°08' W 081°09'0 0.0
2017-Jul-25 02:28N 32°08' W 081°09'0 0.0
2017-Jul-25 01:58N 32°08' W 081°09'0 0.0
2017-Jul-25 01:28N 32°08' W 081°09'0 0.0
2017-Jul-25 00:58N 32°08' W 081°09'0 0.0
2017-Jul-25 00:22N 32°08' W 081°09'0 0.0
2017-Jul-24 23:58N 32°08' W 081°09'0 0.0
2017-Jul-24 23:28N 32°08' W 081°09'0 0.0
2017-Jul-24 22:58N 32°08' W 081°09'0 0.0
2017-Jul-24 22:28N 32°08' W 081°09'0 0.0
2017-Jul-24 21:52N 32°08' W 081°09'0 0.0
2017-Jul-24 21:28N 32°08' W 081°09'0 0.0
2017-Jul-24 20:58N 32°08' W 081°09'0 0.0
2017-Jul-24 20:22N 32°08' W 081°09'0 0.0
2017-Jul-24 19:58N 32°08' W 081°09'0 0.0
2017-Jul-24 19:28N 32°08' W 081°09'0 0.0
2017-Jul-24 18:58N 32°08' W 081°09'0 0.0
2017-Jul-24 18:29N 32°08' W 081°09'0 0.0
2017-Jul-24 17:55N 32°08' W 081°09'0 0.0
2017-Jul-24 17:25N 32°08' W 081°09'0 0.0
2017-Jul-24 16:55N 32°08' W 081°09'0 0.0
2017-Jul-24 16:25N 32°08' W 081°09'0 0.0
2017-Jul-24 15:49N 32°08' W 081°09'4 1.5
2017-Jul-24 13:01N 32°05' W 081°05'5 9.0
2017-Jul-24 12:31N 32°06' W 081°00'612.4
2017-Jul-24 12:00N 32°02' W 080°54'713.2
2017-Jul-24 11:30N 31°60' W 080°47'714.1
2017-Jul-24 11:01N 31°57' W 080°40'3 6.6
2017-Jul-24 10:31N 31°55' W 080°36'4 7.2
2017-Jul-24 10:01N 31°55' W 080°32'4 7.6
2017-Jul-24 09:30N 31°56' W 080°27'3 5.7
2017-Jul-24 09:01N 31°56' W 080°24'2 2.9
2017-Jul-24 08:25N 31°56' W 080°22'0 0.5
2017-Jul-24 07:49N 31°56' W 080°22'34813.9
2017-Jul-23 06:47N 26°12' W 079°24'1616.5
2017-Jul-23 05:48N 25°55' W 079°26'516.2
2017-Jul-23 05:28N 25°50' W 079°26'716.1
2017-Jul-23 05:00N 25°43' W 079°27'816.1
2017-Jul-23 04:30N 25°35' W 079°27'  
2017-Jul-19 21:50N 09°33' W 079°49'616.4
2017-Jul-19 21:29N 09°29' W 079°53'713.9
2017-Jul-19 21:00N 09°22' W 079°55'4 7.6
2017-Jul-19 20:30N 09°19' W 079°55'2 1.9
2017-Jul-19 19:12N 09°16' W 079°55'0 0.0
2017-Jul-19 19:00N 09°16' W 079°55'0 0.5
2017-Jul-19 18:31N 09°16' W 079°55'1 1.6
2017-Jul-19 17:58N 09°15' W 079°55'  
Track history (hours):
 
Tides and Currents Weather Stations Pressure Air Temp Water Temp Dewpoint Dewpoint Depression Visibility Wind Speed Wind Dir Waves Ship Positions

Maersk Danang

Last reported at 2017-Jul-25 10:28 UTC. Time now 2017-Jul-25 10:40 UTC.
Position N 32°08' W 081°09'.

Length 294 m; draft 10.2 m.

Type: Ship (hazmat cat A). MMSI: 636091595.

Date/timePositionNaut miles runAvg speedWind from/ knotsBaromVisibWave heightAir tempDewpointWater temp
2017-Jul-25 10:28N 32°08' W 081°09'0 0.0
2017-Jul-25 09:58N 32°08' W 081°09'0 0.0
2017-Jul-25 09:28N 32°08' W 081°09'0 0.0
2017-Jul-25 08:58N 32°08' W 081°09'0 0.0
2017-Jul-25 08:10N 32°08' W 081°09'0 0.0
2017-Jul-25 07:58N 32°08' W 081°09'0 0.0
2017-Jul-25 07:28N 32°08' W 081°09'0 0.0
2017-Jul-25 06:58N 32°08' W 081°09'0 0.0
2017-Jul-25 06:28N 32°08' W 081°09'0 0.0
2017-Jul-25 05:58N 32°08' W 081°09'0 0.0
2017-Jul-25 05:28N 32°08' W 081°09'0 0.0
2017-Jul-25 04:58N 32°08' W 081°09'0 0.0
2017-Jul-25 04:22N 32°08' W 081°09'0 0.0
2017-Jul-25 03:58N 32°08' W 081°09'0 0.0
2017-Jul-25 03:28N 32°08' W 081°09'0 0.0
2017-Jul-25 02:58N 32°08' W 081°09'0 0.0
2017-Jul-25 02:28N 32°08' W 081°09'0 0.0
2017-Jul-25 01:58N 32°08' W 081°09'0 0.0
2017-Jul-25 01:28N 32°08' W 081°09'0 0.0
2017-Jul-25 00:58N 32°08' W 081°09'0 0.0
2017-Jul-25 00:22N 32°08' W 081°09'0 0.0
2017-Jul-24 23:58N 32°08' W 081°09'0 0.0
2017-Jul-24 23:28N 32°08' W 081°09'0 0.0
2017-Jul-24 22:58N 32°08' W 081°09'0 0.0
2017-Jul-24 22:28N 32°08' W 081°09'0 0.0
2017-Jul-24 21:52N 32°08' W 081°09'0 0.0
2017-Jul-24 21:28N 32°08' W 081°09'0 0.0
2017-Jul-24 20:58N 32°08' W 081°09'0 0.0
2017-Jul-24 20:22N 32°08' W 081°09'0 0.0
2017-Jul-24 19:58N 32°08' W 081°09'0 0.0
2017-Jul-24 19:28N 32°08' W 081°09'0 0.0
2017-Jul-24 18:58N 32°08' W 081°09'0 0.0
2017-Jul-24 18:29N 32°08' W 081°09'0 0.0
2017-Jul-24 17:55N 32°08' W 081°09'0 0.0
2017-Jul-24 17:25N 32°08' W 081°09'0 0.0
2017-Jul-24 16:55N 32°08' W 081°09'0 0.0
2017-Jul-24 16:25N 32°08' W 081°09'0 0.0
2017-Jul-24 15:49N 32°08' W 081°09'4 1.5
2017-Jul-24 13:01N 32°05' W 081°05'5 9.0
2017-Jul-24 12:31N 32°06' W 081°00'612.4
2017-Jul-24 12:00N 32°02' W 080°54'713.2
2017-Jul-24 11:30N 31°60' W 080°47'714.1
2017-Jul-24 11:01N 31°57' W 080°40'3 6.6
2017-Jul-24 10:31N 31°55' W 080°36'4 7.2
2017-Jul-24 10:01N 31°55' W 080°32'4 7.6
2017-Jul-24 09:30N 31°56' W 080°27'3 5.7
2017-Jul-24 09:01N 31°56' W 080°24'2 2.9
2017-Jul-24 08:25N 31°56' W 080°22'0 0.5
2017-Jul-24 07:49N 31°56' W 080°22'34813.9
2017-Jul-23 06:47N 26°12' W 079°24'1616.5
2017-Jul-23 05:48N 25°55' W 079°26'516.2
2017-Jul-23 05:28N 25°50' W 079°26'716.1
2017-Jul-23 05:00N 25°43' W 079°27'816.1
2017-Jul-23 04:30N 25°35' W 079°27'  
2017-Jul-19 21:50N 09°33' W 079°49'616.4
2017-Jul-19 21:29N 09°29' W 079°53'713.9
2017-Jul-19 21:00N 09°22' W 079°55'4 7.6
2017-Jul-19 20:30N 09°19' W 079°55'2 1.9
2017-Jul-19 19:12N 09°16' W 079°55'0 0.0
2017-Jul-19 19:00N 09°16' W 079°55'0 0.5
2017-Jul-19 18:31N 09°16' W 079°55'1 1.6
2017-Jul-19 17:58N 09°15' W 079°55'  

Dump ship's entire track history